Terminal Aerodrome Forecast
Issued by NWS

Home | Current Version | Previous Version | Text Only | Print | Product List | Glossary On
Versions: 1 2 3 4 5 6 7 8 9 10 11 12 13 14 15 16 17
816
FTUS42 KJAX 132323
TAFVQQ
TAF
KVQQ 132323Z 1400/1424 35006KT P6SM SKC
     FM141300 03005KT P6SM SCT030 BKN250
     FM141800 06011KT P6SM BKN035 BKN250
     FM142200 07008KT P6SM OVC030=

USA.gov is the U.S. government's official web portal to all federal, state and local government web resources and services.